Time;durP1;ratioP1;P1;durP2;ratioP2;P2;SDS_P1;SDS_P2;PMS_P1;PMS_P2;Temp;Humidity;BMP_temperature;BMP_pressure;BME280_temperature;BME280_humidity;BME280_pressure;Samples;Min_cycle;Max_cycle;Signal;HPM_P1;HPM_P2
2022/12/12 00:01:36;;;;;;;17.77;13.60;;;7.00;1.00;;;;;;5034160;28;20028;-61
2022/12/12 00:04:03;;;;;;;16.73;13.63;;;7.00;1.00;;;;;;5034345;28;20049;-61
2022/12/12 00:06:29;;;;;;;14.30;12.20;;;7.00;1.00;;;;;;5032958;28;20124;-61
2022/12/12 00:08:54;;;;;;;15.30;12.47;;;7.00;1.00;;;;;;5020865;28;20447;-61
2022/12/12 00:11:23;;;;;;;18.17;13.57;;;7.00;1.00;;;;;;5034134;28;20030;-61
2022/12/12 00:13:49;;;;;;;16.87;13.07;;;7.00;1.00;;;;;;5034109;28;20463;-61
2022/12/12 00:16:15;;;;;;;15.73;12.83;;;7.00;1.00;;;;;;5022032;28;20030;-61
2022/12/12 00:18:41;;;;;;;15.70;12.03;;;7.00;1.00;;;;;;5017220;28;20066;-61
2022/12/12 00:21:14;;;;;;;16.43;12.10;;;7.00;1.00;;;;;;5023844;28;20108;-61
2022/12/12 00:23:39;;;;;;;15.57;11.63;;;6.80;1.00;;;;;;5033834;28;20443;-61
2022/12/12 00:26:10;;;;;;;16.57;12.87;;;6.90;1.00;;;;;;5032498;28;20064;-61
2022/12/12 00:28:36;;;;;;;15.50;12.33;;;7.00;1.00;;;;;;5033536;28;20025;-61
2022/12/12 00:31:08;;;;;;;17.17;13.03;;;6.90;1.00;;;;;;5025016;28;20486;-61
2022/12/12 00:33:33;;;;;;;16.77;12.73;;;6.60;1.00;;;;;;5033623;28;20025;-61
2022/12/12 00:35:59;;;;;;;16.83;13.17;;;6.80;1.00;;;;;;5033471;28;20372;-61
2022/12/12 00:38:25;;;;;;;15.87;12.43;;;6.90;1.00;;;;;;5033495;28;20097;-61
2022/12/12 00:40:55;;;;;;;19.37;13.27;;;6.90;1.00;;;;;;5033305;28;20500;-61
2022/12/12 00:43:21;;;;;;;18.63;13.47;;;7.00;1.00;;;;;;5033604;28;20033;-61
2022/12/12 00:45:47;;;;;;;19.07;13.63;;;6.90;1.00;;;;;;5020342;28;20052;-61
2022/12/12 00:48:13;;;;;;;19.50;13.73;;;7.00;1.00;;;;;;5027872;28;20032;-61
2022/12/12 00:50:38;;;;;;;17.37;13.77;;;6.90;1.00;;;;;;5030117;28;20353;-61
2022/12/12 00:53:04;;;;;;;16.33;13.47;;;6.90;1.00;;;;;;5015597;28;20349;-60
2022/12/12 00:55:30;;;;;;;19.23;14.90;;;7.00;1.00;;;;;;5033086;28;20121;-61
2022/12/12 00:57:55;;;;;;;18.47;14.20;;;7.00;1.00;;;;;;5031770;28;20464;-61
2022/12/12 01:00:22;;;;;;;20.03;13.77;;;7.00;1.00;;;;;;5025614;28;20029;-61
2022/12/12 01:02:48;;;;;;;19.30;14.27;;;6.90;1.00;;;;;;5033165;28;20025;-60
2022/12/12 01:05:14;;;;;;;18.93;14.40;;;6.90;1.00;;;;;;5033213;28;20422;-61
2022/12/12 01:07:40;;;;;;;17.80;13.87;;;6.90;1.00;;;;;;5032946;28;20041;-61
2022/12/12 01:10:06;;;;;;;20.60;14.77;;;6.90;1.00;;;;;;5032779;28;20353;-61
2022/12/12 01:12:32;;;;;;;19.47;14.27;;;6.90;1.00;;;;;;5026913;28;20416;-61
2022/12/12 01:14:58;;;;;;;20.33;14.10;;;6.90;1.00;;;;;;5032730;28;20032;-61
2022/12/12 01:17:23;;;;;;;19.87;14.17;;;6.90;1.00;;;;;;5018661;28;20026;-61
2022/12/12 01:19:49;;;;;;;17.90;14.00;;;6.90;1.00;;;;;;5032745;28;20119;-61
2022/12/12 01:22:14;;;;;;;17.73;13.50;;;7.00;1.00;;;;;;5032735;28;20496;-61
2022/12/12 01:24:40;;;;;;;19.90;14.87;;;6.90;1.00;;;;;;5023691;28;20018;-60
2022/12/12 01:27:06;;;;;;;20.10;14.70;;;6.80;1.00;;;;;;5013974;28;20361;-61
2022/12/12 01:29:33;;;;;;;17.07;13.27;;;6.90;1.00;;;;;;5022810;28;20095;-61
2022/12/12 01:31:59;;;;;;;18.03;14.67;;;6.90;1.00;;;;;;5032678;28;20081;-61
2022/12/12 01:34:25;;;;;;;17.97;13.43;;;7.00;1.00;;;;;;5032539;28;20033;-61
2022/12/12 01:36:51;;;;;;;20.80;13.77;;;6.90;1.00;;;;;;5032214;28;20034;-61
2022/12/12 01:39:16;;;;;;;20.77;14.43;;;7.00;1.00;;;;;;5032572;28;20023;-61
2022/12/12 01:41:43;;;;;;;16.23;12.67;;;6.90;1.00;;;;;;5030729;28;20030;-61
2022/12/12 01:44:47;;;;;;;16.93;13.00;;;6.80;1.00;;;;;;5032285;28;20067;-61
2022/12/12 01:47:15;;;;;;;18.23;13.37;;;6.90;1.00;;;;;;5032244;28;20080;-61
2022/12/12 01:49:46;;;;;;;18.67;14.00;;;6.80;1.00;;;;;;5032415;28;20028;-61
2022/12/12 01:52:18;;;;;;;19.63;13.80;;;6.80;1.00;;;;;;5023724;28;20033;-61
2022/12/12 01:54:50;;;;;;;20.13;13.30;;;6.80;1.00;;;;;;5027921;28;20029;-61
2022/12/12 01:57:25;;;;;;;17.57;12.97;;;6.80;1.00;;;;;;5008254;28;20049;-61
2022/12/12 01:59:51;;;;;;;17.30;12.23;;;6.70;1.00;;;;;;5019358;28;20124;-61
2022/12/12 02:02:22;;;;;;;19.97;13.83;;;6.60;1.00;;;;;;5009798;28;20033;-61
2022/12/12 02:04:48;;;;;;;17.37;13.33;;;6.70;1.00;;;;;;5021826;28;20061;-61
2022/12/12 02:07:16;;;;;;;19.03;13.93;;;6.60;1.00;;;;;;5031341;28;20048;-61
2022/12/12 02:09:42;;;;;;;16.90;13.10;;;6.60;1.00;;;;;;5029458;28;20066;-61
2022/12/12 02:15:40;;;;;;;18.70;13.17;;;6.80;1.00;;;;;;5014343;28;20036;-61
2022/12/12 02:18:21;;;;;;;18.17;12.83;;;6.90;1.00;;;;;;5031460;28;20100;-61
2022/12/12 02:20:55;;;;;;;19.77;12.67;;;6.80;1.00;;;;;;5002191;28;20462;-61
2022/12/12 02:23:39;;;;;;;17.77;13.63;;;6.90;1.00;;;;;;5029979;28;20026;-61
2022/12/12 02:26:27;;;;;;;19.80;13.50;;;6.90;1.00;;;;;;5011144;28;20037;-61
2022/12/12 02:29:11;;;;;;;21.37;13.93;;;6.90;1.00;;;;;;5027273;28;20502;-61
2022/12/12 02:32:03;;;;;;;19.47;12.87;;;6.90;1.00;;;;;;5013867;28;20018;-61
2022/12/12 02:34:50;;;;;;;22.43;13.67;;;6.80;1.00;;;;;;5009663;28;20516;-61
2022/12/12 02:37:21;;;;;;;17.90;12.47;;;6.80;1.00;;;;;;5004922;28;20502;-61
2022/12/12 02:39:57;;;;;;;18.80;13.07;;;6.80;1.00;;;;;;5009210;28;20388;-61
2022/12/12 02:42:45;;;;;;;19.40;14.00;;;6.70;1.00;;;;;;5008827;28;20018;-61
2022/12/12 02:45:27;;;;;;;20.23;13.27;;;6.70;1.00;;;;;;5034644;28;20372;-61
2022/12/12 02:48:02;;;;;;;17.43;13.50;;;6.80;1.00;;;;;;5027067;28;20452;-61
2022/12/12 02:50:30;;;;;;;20.17;14.37;;;6.70;1.00;;;;;;5018497;28;20108;-62
2022/12/12 02:52:59;;;;;;;18.27;13.77;;;6.70;1.00;;;;;;5034247;28;20033;-61
2022/12/12 02:55:30;;;;;;;19.33;13.73;;;6.80;1.00;;;;;;5026042;28;20128;-60
2022/12/12 02:57:56;;;;;;;18.70;13.87;;;6.70;1.00;;;;;;5035054;28;20072;-61
2022/12/12 03:00:22;;;;;;;19.83;14.67;;;6.70;1.00;;;;;;5034704;28;20057;-61
2022/12/12 03:07:45;;;;;;;21.33;14.77;;;6.50;1.00;;;;;;5028288;28;20033;-61
2022/12/12 03:16:00;;;;;;;23.40;14.00;;;6.50;1.00;;;;;;5019742;28;20036;-60
2022/12/12 03:18:35;;;;;;;20.73;13.87;;;6.60;1.00;;;;;;5035035;28;20033;-60
2022/12/12 03:21:14;;;;;;;22.30;15.00;;;6.60;1.00;;;;;;5027156;28;20026;-60
2022/12/12 03:23:44;;;;;;;20.07;13.70;;;6.70;1.00;;;;;;5030654;28;20116;-60
2022/12/12 03:26:28;;;;;;;18.20;12.77;;;6.70;1.00;;;;;;5028176;28;20017;-60
2022/12/12 03:29:04;;;;;;;16.07;12.60;;;6.80;1.00;;;;;;5034783;28;20056;-60
2022/12/12 03:31:33;;;;;;;15.03;12.00;;;6.70;1.00;;;;;;5035102;28;20022;-60
2022/12/12 03:34:03;;;;;;;15.57;11.63;;;6.70;1.00;;;;;;5034707;28;20026;-60
2022/12/12 03:36:45;;;;;;;16.63;11.80;;;6.70;1.00;;;;;;5029384;28;20059;-60
2022/12/12 03:39:39;;;;;;;16.20;12.20;;;6.60;1.00;;;;;;5020422;28;20083;-59
2022/12/12 03:42:20;;;;;;;16.17;11.90;;;6.60;1.00;;;;;;5034728;28;20033;-59
2022/12/12 03:45:01;;;;;;;18.00;13.17;;;6.50;1.00;;;;;;5034762;28;20423;-60
2022/12/12 03:47:37;;;;;;;17.00;12.53;;;6.50;1.00;;;;;;5027218;28;20087;-60
2022/12/12 03:50:08;;;;;;;17.17;12.37;;;6.50;1.00;;;;;;5034905;28;20036;-60
2022/12/12 03:52:55;;;;;;;16.57;12.13;;;6.50;1.00;;;;;;5034059;28;20167;-59
2022/12/12 03:55:49;;;;;;;19.27;13.50;;;6.50;1.00;;;;;;5034146;28;20434;-59
2022/12/12 03:58:27;;;;;;;18.00;13.03;;;6.50;1.00;;;;;;5006794;28;20071;-60
2022/12/12 04:00:56;;;;;;;16.73;12.13;;;6.40;1.00;;;;;;5034434;28;20494;-59
2022/12/12 04:03:31;;;;;;;18.90;13.20;;;6.30;1.00;;;;;;5034256;28;20037;-59
2022/12/12 04:06:26;;;;;;;18.63;13.13;;;6.40;1.00;;;;;;5033505;28;20029;-59
2022/12/12 04:15:18;;;;;;;19.13;13.03;;;6.30;1.00;;;;;;5006129;28;20033;-60
2022/12/12 04:18:32;;;;;;;18.37;13.83;;;6.40;1.00;;;;;;5014577;28;20021;-60
2022/12/12 04:24:39;;;;;;;19.83;13.87;;;6.30;1.00;;;;;;5018500;28;20061;-60
2022/12/12 04:27:28;;;;;;;19.77;13.23;;;6.30;1.00;;;;;;5004504;28;20038;-60
2022/12/12 04:30:04;;;;;;;20.63;14.50;;;6.30;1.00;;;;;;5033534;28;20533;-60
2022/12/12 04:32:36;;;;;;;21.60;14.40;;;6.30;1.00;;;;;;5033683;28;20026;-60
2022/12/12 04:35:13;;;;;;;17.50;13.13;;;6.20;1.00;;;;;;5021299;28;20311;-60
2022/12/12 04:37:45;;;;;;;20.73;13.97;;;6.30;1.00;;;;;;5012329;28;20043;-60
2022/12/12 04:40:15;;;;;;;20.53;14.27;;;6.10;1.00;;;;;;5033723;28;20083;-60
2022/12/12 04:42:53;;;;;;;21.63;14.20;;;6.20;1.00;;;;;;5033517;28;20472;-60
2022/12/12 04:45:23;;;;;;;22.30;15.13;;;6.30;1.00;;;;;;5026771;28;20034;-60
2022/12/12 04:47:52;;;;;;;22.93;15.97;;;6.30;1.00;;;;;;5033849;28;20418;-60
2022/12/12 04:50:20;;;;;;;21.73;15.37;;;6.20;1.00;;;;;;5033591;28;20029;-60
2022/12/12 04:52:49;;;;;;;23.93;16.93;;;6.30;1.00;;;;;;5033350;28;20021;-60
2022/12/12 04:55:28;;;;;;;24.03;16.97;;;6.20;1.00;;;;;;5028195;28;20042;-59
2022/12/12 04:57:54;;;;;;;25.17;16.47;;;6.00;1.00;;;;;;5009198;28;20037;-59
2022/12/12 05:00:45;;;;;;;25.80;16.80;;;6.10;1.00;;;;;;5033160;28;20109;-59
2022/12/12 05:03:19;;;;;;;23.37;15.13;;;6.30;1.00;;;;;;5010119;28;20062;-59
2022/12/12 05:05:58;;;;;;;24.05;16.20;;;6.30;1.00;;;;;;5033174;28;20597;-60
2022/12/12 05:08:45;;;;;;;23.00;15.57;;;6.10;1.00;;;;;;5033452;28;20100;-60
2022/12/12 05:11:12;;;;;;;23.07;16.60;;;6.10;1.00;;;;;;5023818;28;20453;-60
2022/12/12 05:13:40;;;;;;;24.50;16.27;;;6.10;1.00;;;;;;5019011;28;20018;-60
2022/12/12 05:16:34;;;;;;;22.50;16.27;;;6.10;1.00;;;;;;5032768;28;20071;-60
2022/12/12 05:19:00;;;;;;;23.80;17.00;;;6.10;1.00;;;;;;5033019;28;20449;-59
2022/12/12 05:21:26;;;;;;;28.93;17.53;;;6.00;1.00;;;;;;5032604;28;20421;-60
2022/12/12 05:23:52;;;;;;;23.50;15.60;;;6.20;1.00;;;;;;5023525;28;20044;-60
2022/12/12 05:26:24;;;;;;;25.73;16.67;;;6.00;1.00;;;;;;5026979;28;20029;-60
2022/12/12 05:28:50;;;;;;;22.73;16.43;;;6.20;1.00;;;;;;5032936;28;20379;-60
2022/12/12 05:31:16;;;;;;;24.67;16.13;;;6.10;1.00;;;;;;5032801;28;20402;-60
2022/12/12 05:33:42;;;;;;;23.47;15.83;;;6.20;1.00;;;;;;5032647;28;20124;-60
2022/12/12 05:36:07;;;;;;;24.20;16.80;;;6.10;1.00;;;;;;5031244;28;20038;-61
2022/12/12 05:38:33;;;;;;;25.07;16.83;;;6.20;1.00;;;;;;5032531;28;20072;-60
2022/12/12 05:40:59;;;;;;;25.13;16.73;;;6.30;1.00;;;;;;5022210;28;20036;-60
2022/12/12 05:43:25;;;;;;;23.27;16.83;;;6.30;1.00;;;;;;5032782;28;20033;-61
2022/12/12 05:45:51;;;;;;;24.50;16.73;;;6.30;1.00;;;;;;5032320;28;20474;-60
2022/12/12 05:48:16;;;;;;;25.00;17.40;;;6.30;1.00;;;;;;5032471;28;20106;-60
2022/12/12 05:50:42;;;;;;;24.93;17.40;;;6.00;1.00;;;;;;5025095;28;20057;-60
2022/12/12 05:53:08;;;;;;;24.03;16.50;;;6.20;1.00;;;;;;5032204;28;20107;-60
2022/12/12 05:55:34;;;;;;;23.87;16.30;;;6.20;1.00;;;;;;5032041;28;20064;-59
2022/12/12 05:58:00;;;;;;;24.37;16.47;;;6.20;1.00;;;;;;5032433;28;20025;-59
2022/12/12 06:00:25;;;;;;;22.40;16.13;;;6.20;1.00;;;;;;5029908;28;20379;-60
2022/12/12 06:02:51;;;;;;;21.93;15.93;;;6.20;1.00;;;;;;5031048;28;20024;-59
2022/12/12 06:05:17;;;;;;;23.43;16.07;;;6.20;1.00;;;;;;5030767;28;20076;-60
2022/12/12 06:07:42;;;;;;;23.47;16.23;;;6.20;1.00;;;;;;5031961;28;20091;-60
2022/12/12 06:10:08;;;;;;;22.83;16.43;;;6.10;1.00;;;;;;5031868;28;20060;-60
2022/12/12 06:12:34;;;;;;;25.07;16.93;;;6.10;1.00;;;;;;5018896;28;20084;-60
2022/12/12 06:14:59;;;;;;;23.73;17.07;;;6.10;1.00;;;;;;5027921;28;20033;-60
2022/12/12 06:17:25;;;;;;;23.30;17.40;;;5.90;1.00;;;;;;5032140;28;20068;-60
2022/12/12 06:19:51;;;;;;;25.63;17.33;;;6.00;1.00;;;;;;5032087;28;20030;-60
2022/12/12 06:22:17;;;;;;;24.40;16.30;;;6.00;1.00;;;;;;5031628;28;20025;-60
2022/12/12 06:24:44;;;;;;;22.73;16.37;;;6.00;1.00;;;;;;5030394;28;20026;-60
2022/12/12 06:27:10;;;;;;;25.87;17.13;;;6.00;1.00;;;;;;5021164;28;20044;-60
2022/12/12 06:29:35;;;;;;;24.57;16.30;;;6.00;1.00;;;;;;5019923;28;20471;-60
2022/12/12 06:32:01;;;;;;;22.90;16.57;;;6.00;1.00;;;;;;5031590;28;20025;-60
2022/12/12 06:34:26;;;;;;;21.87;15.57;;;6.00;1.00;;;;;;5031592;28;20029;-60
2022/12/12 06:36:52;;;;;;;24.73;16.00;;;5.90;1.00;;;;;;5030157;28;20037;-60
2022/12/12 06:39:18;;;;;;;22.93;15.77;;;6.00;1.00;;;;;;5032071;28;20022;-59
2022/12/12 06:41:43;;;;;;;26.73;17.93;;;6.00;1.00;;;;;;5030208;28;20037;-59
2022/12/12 06:44:09;;;;;;;27.30;16.83;;;6.00;1.00;;;;;;5031455;28;20112;-60
2022/12/12 06:46:35;;;;;;;23.37;16.57;;;6.10;1.00;;;;;;5031526;28;20113;-59
2022/12/12 06:49:01;;;;;;;25.37;17.00;;;6.10;1.00;;;;;;5031096;28;20020;-59
2022/12/12 06:51:35;;;;;;;26.27;16.40;;;6.00;1.00;;;;;;5031460;28;20032;-60
2022/12/12 06:54:01;;;;;;;23.60;16.77;;;6.00;1.00;;;;;;5021815;28;20026;-60
2022/12/12 06:56:27;;;;;;;27.33;17.10;;;6.00;1.00;;;;;;5031273;28;20068;-60
2022/12/12 06:58:53;;;;;;;23.33;17.00;;;6.00;1.00;;;;;;5031254;28;20030;-60
2022/12/12 07:01:21;;;;;;;24.37;16.13;;;5.90;1.00;;;;;;5031348;28;20105;-60
2022/12/12 07:03:49;;;;;;;25.73;17.03;;;5.80;1.00;;;;;;5025021;28;20302;-60
2022/12/12 07:06:15;;;;;;;22.70;16.67;;;5.70;1.00;;;;;;5028872;28;20025;-60
2022/12/12 07:08:41;;;;;;;25.50;17.00;;;5.70;1.00;;;;;;5031606;28;20365;-60
2022/12/12 07:11:11;;;;;;;25.80;16.53;;;5.70;1.00;;;;;;5031226;28;20104;-60
2022/12/12 07:13:36;;;;;;;25.43;16.60;;;5.70;1.00;;;;;;5014948;28;20032;-60
2022/12/12 07:16:02;;;;;;;27.43;17.67;;;5.80;1.00;;;;;;5005573;28;20062;-60
2022/12/12 07:18:28;;;;;;;26.37;15.73;;;5.70;1.00;;;;;;5026454;28;20494;-60
2022/12/12 07:20:57;;;;;;;26.10;16.87;;;5.60;1.00;;;;;;5016313;28;20057;-60
2022/12/12 07:23:22;;;;;;;23.43;17.20;;;5.70;1.00;;;;;;5027627;28;20029;-60
2022/12/12 07:25:48;;;;;;;25.87;17.30;;;5.80;1.00;;;;;;5021381;28;20075;-61
2022/12/12 07:28:14;;;;;;;22.53;16.10;;;5.80;1.00;;;;;;5019863;28;20025;-61
2022/12/12 07:30:45;;;;;;;22.07;16.03;;;5.90;1.00;;;;;;5025877;28;20442;-60
2022/12/12 07:33:12;;;;;;;25.40;16.63;;;6.00;1.00;;;;;;5034822;28;20029;-60
2022/12/12 07:35:38;;;;;;;24.73;16.73;;;5.90;1.00;;;;;;5034819;28;20029;-60
2022/12/12 07:38:04;;;;;;;23.03;15.57;;;6.00;1.00;;;;;;5034650;28;20033;-60
2022/12/12 07:40:31;;;;;;;23.57;15.63;;;6.00;1.00;;;;;;5029912;28;20018;-60
2022/12/12 07:42:58;;;;;;;26.03;15.77;;;6.00;1.00;;;;;;5023708;28;20038;-61
2022/12/12 07:45:24;;;;;;;23.17;16.90;;;6.00;1.00;;;;;;5031874;28;20046;-60
2022/12/12 07:47:51;;;;;;;25.83;16.97;;;6.10;1.00;;;;;;5020759;28;20125;-61
2022/12/12 07:50:17;;;;;;;26.50;17.00;;;6.00;1.00;;;;;;5023307;28;20022;-60
2022/12/12 07:52:42;;;;;;;24.93;16.93;;;6.10;1.00;;;;;;5020585;28;20036;-60
2022/12/12 07:55:09;;;;;;;26.63;16.40;;;6.10;1.00;;;;;;5021192;28;20097;-60
2022/12/12 07:57:35;;;;;;;23.07;16.13;;;6.20;1.00;;;;;;5011705;28;20494;-61
2022/12/12 08:00:02;;;;;;;27.20;16.57;;;6.20;1.00;;;;;;5013110;28;20109;-61
2022/12/12 08:02:28;;;;;;;25.63;16.83;;;6.10;1.00;;;;;;5015696;28;20030;-61
2022/12/12 08:04:54;;;;;;;25.50;17.07;;;5.90;1.00;;;;;;5015425;28;20022;-61
2022/12/12 08:07:19;;;;;;;26.50;16.73;;;6.00;1.00;;;;;;5002414;28;20034;-60
2022/12/12 08:09:45;;;;;;;23.87;16.93;;;6.00;1.00;;;;;;5012108;28;20037;-61
2022/12/12 08:12:10;;;;;;;26.33;17.00;;;6.00;1.00;;;;;;5026257;28;20025;-61
2022/12/12 08:14:36;;;;;;;25.23;16.87;;;5.90;1.00;;;;;;5028783;28;20113;-61
2022/12/12 08:17:02;;;;;;;26.97;17.43;;;5.90;1.00;;;;;;5014165;28;20132;-60
2022/12/12 08:19:28;;;;;;;24.83;17.57;;;5.80;1.00;;;;;;5031666;28;20029;-61
2022/12/12 08:21:53;;;;;;;25.93;17.17;;;5.80;1.00;;;;;;5033885;28;20029;-61
2022/12/12 08:24:19;;;;;;;22.97;16.17;;;6.00;1.00;;;;;;5019894;28;20104;-61
2022/12/12 08:26:51;;;;;;;25.83;16.93;;;6.00;1.00;;;;;;5033740;28;20075;-60
2022/12/12 08:29:17;;;;;;;25.40;16.63;;;6.10;1.00;;;;;;5032577;28;20033;-60
2022/12/12 08:31:42;;;;;;;22.27;16.40;;;5.90;1.00;;;;;;5032842;28;20037;-64
2022/12/12 08:34:08;;;;;;;26.70;17.07;;;5.70;1.00;;;;;;5020400;28;20026;-60
2022/12/12 08:40:02;;;;;;;27.83;17.00;;;5.90;1.00;;;;;;5017246;28;20104;-60
2022/12/12 08:42:28;;;;;;;25.33;16.57;;;6.00;1.00;;;;;;5033656;28;20435;-59
2022/12/12 08:44:54;;;;;;;26.17;17.30;;;5.90;1.00;;;;;;5033275;28;20037;-63
2022/12/12 08:47:29;;;;;;;22.83;16.50;;;6.00;1.00;;;;;;5033552;28;20029;-63
2022/12/12 08:49:54;;;;;;;;;;;5.70;1.00;;;;;;5033669;28;20033;-60
2022/12/12 08:52:20;;;;;;;22.87;16.37;;;5.80;1.00;;;;;;5027538;28;20367;-64
2022/12/12 08:54:46;;;;;;;24.97;16.70;;;5.70;1.00;;;;;;5022385;28;20097;-63
2022/12/12 08:57:12;;;;;;;22.33;15.27;;;5.90;1.00;;;;;;5032958;28;20052;-61
2022/12/12 08:59:37;;;;;;;24.53;16.93;;;6.00;1.00;;;;;;5033432;28;20021;-63
2022/12/12 09:02:03;;;;;;;24.77;16.20;;;5.90;1.00;;;;;;5032998;28;20029;-62
2022/12/12 09:04:28;;;;;;;26.50;19.13;;;6.10;1.00;;;;;;5031741;28;20451;-65
2022/12/12 09:06:54;;;;;;;27.63;18.60;;;6.10;1.00;;;;;;5015116;28;20041;-64
2022/12/12 09:09:19;;;;;;;25.97;18.50;;;6.20;1.00;;;;;;5019326;28;20104;-64
2022/12/12 09:11:45;;;;;;;29.67;18.60;;;6.10;1.00;;;;;;5012869;28;20029;-61
2022/12/12 09:14:11;;;;;;;23.53;17.57;;;5.80;1.00;;;;;;4999023;28;20475;-64
2022/12/12 09:16:36;;;;;;;24.83;16.63;;;5.90;1.00;;;;;;5019277;28;20030;-62
2022/12/12 09:19:02;;;;;;;21.47;15.87;;;6.00;1.00;;;;;;5025556;28;20049;-70
2022/12/12 09:21:28;;;;;;;24.70;17.30;;;6.20;1.00;;;;;;5023811;28;20033;-71
2022/12/12 09:23:54;;;;;;;23.63;17.30;;;6.20;1.00;;;;;;5032450;28;20558;-67
2022/12/12 09:26:19;;;;;;;24.03;16.63;;;6.00;1.00;;;;;;5022177;28;20390;-70
2022/12/12 09:28:45;;;;;;;27.63;18.20;;;6.20;1.00;;;;;;5018785;28;20084;-68
2022/12/12 09:31:12;;;;;;;23.70;17.13;;;6.30;1.00;;;;;;5033088;28;20025;-56
2022/12/12 09:33:38;;;;;;;23.90;16.20;;;6.00;1.00;;;;;;5031652;28;20024;-56
2022/12/12 09:39:25;;;;;;;24.13;16.13;;;6.30;1.00;;;;;;5005612;28;20036;-61
2022/12/12 09:41:51;;;;;;;25.07;17.73;;;6.10;1.00;;;;;;5032954;28;20026;-61
2022/12/12 09:44:19;;;;;;;23.07;17.00;;;6.20;1.00;;;;;;5016713;28;20112;-63
2022/12/12 09:47:04;;;;;;;23.30;15.90;;;6.30;1.00;;;;;;5020650;28;20022;-62
2022/12/12 09:49:46;;;;;;;23.90;15.53;;;6.20;1.00;;;;;;5032139;28;20419;-60
2022/12/12 09:52:21;;;;;;;24.53;15.80;;;6.30;1.00;;;;;;5028848;28;20026;-69
2022/12/12 09:54:47;;;;;;;23.90;16.90;;;6.20;1.00;;;;;;5018318;28;20028;-59
2022/12/12 09:57:36;;;;;;;24.40;16.73;;;6.20;1.00;;;;;;5031723;28;20400;-60
2022/12/12 10:00:09;;;;;;;25.87;16.93;;;6.20;1.00;;;;;;5018311;28;20033;-69
2022/12/12 10:03:01;;;;;;;26.03;16.77;;;6.20;1.00;;;;;;5032458;28;20394;-63
2022/12/12 10:05:49;;;;;;;24.37;17.17;;;6.20;1.00;;;;;;5026195;28;20033;-62
2022/12/12 10:08:20;;;;;;;27.30;17.00;;;6.20;1.00;;;;;;5010226;28;20034;-67
2022/12/12 10:10:51;;;;;;;25.90;17.07;;;6.20;1.00;;;;;;5022788;28;20037;-66
2022/12/12 10:13:25;;;;;;;25.67;17.37;;;6.30;1.00;;;;;;5026668;28;20041;-62
2022/12/12 10:16:08;;;;;;;24.70;17.00;;;6.30;1.00;;;;;;5008465;28;20060;-62
2022/12/12 10:18:47;;;;;;;27.57;17.53;;;6.10;1.00;;;;;;5016132;28;20018;-67
2022/12/12 10:21:17;;;;;;;23.23;16.60;;;6.20;1.00;;;;;;5017680;28;20034;-73
2022/12/12 10:23:49;;;;;;;25.90;16.47;;;6.30;1.00;;;;;;5022136;28;20056;-62
2022/12/12 10:26:18;;;;;;;25.70;16.70;;;6.30;1.00;;;;;;5021736;28;20425;-62
2022/12/12 10:28:45;;;;;;;28.03;18.07;;;6.30;1.00;;;;;;5009090;28;20026;-61
2022/12/12 10:31:40;;;;;;;24.07;15.97;;;6.30;1.00;;;;;;5015398;28;20029;-69
2022/12/12 10:34:53;;;;;;;25.53;16.73;;;6.40;1.00;;;;;;5006551;28;20140;-68
2022/12/12 10:38:01;;;;;;;22.60;16.20;;;6.40;1.00;;;;;;4927548;29;20047;-66
2022/12/12 10:40:39;;;;;;;25.93;16.60;;;6.40;1.00;;;;;;5004459;28;20042;-67
2022/12/12 10:43:28;;;;;;;20.70;15.97;;;6.30;1.00;;;;;;5007671;28;20034;-65
2022/12/12 10:46:03;;;;;;;25.63;16.53;;;6.40;1.00;;;;;;5010888;28;20491;-68
2022/12/12 10:48:29;;;;;;;27.98;16.75;;;6.50;1.00;;;;;;5008944;28;20030;-68
2022/12/12 10:51:04;;;;;;;23.40;15.80;;;6.40;1.00;;;;;;5007631;28;20056;-70
2022/12/12 10:53:31;;;;;;;24.43;16.53;;;6.60;1.00;;;;;;5007925;28;20026;-65
2022/12/12 10:56:06;;;;;;;25.67;16.63;;;6.50;1.00;;;;;;5009946;28;20045;-61
2022/12/12 10:58:43;;;;;;;24.63;16.13;;;6.50;1.00;;;;;;5011090;28;20022;-61
2022/12/12 11:11:09;;;;;;;24.23;16.57;;;6.60;1.00;;;;;;5004182;28;20107;-66
2022/12/12 11:13:59;;;;;;;25.10;15.83;;;6.70;1.00;;;;;;5014631;28;20072;-63
2022/12/12 11:16:43;;;;;;;23.30;15.07;;;6.50;1.00;;;;;;5029377;28;20514;-63
2022/12/12 11:19:27;;;;;;;26.27;15.93;;;6.60;1.00;;;;;;5010669;28;20557;-62
2022/12/12 11:21:54;;;;;;;32.70;18.02;;;6.50;1.00;;;;;;5011152;28;20030;-61
2022/12/12 11:24:22;;;;;;;23.97;15.37;;;6.50;1.00;;;;;;5009265;28;20026;-61
2022/12/12 11:26:59;;;;;;;24.33;16.63;;;6.40;1.00;;;;;;5013515;28;20030;-66
2022/12/12 11:29:37;;;;;;;27.30;18.50;;;6.60;1.00;;;;;;5012556;28;20087;-67
2022/12/12 11:32:03;;;;;;;22.93;16.40;;;6.80;1.00;;;;;;5013249;28;20047;-64
2022/12/12 11:34:38;;;;;;;24.80;16.90;;;6.80;1.00;;;;;;5010330;28;20053;-62
2022/12/12 11:37:04;;;;;;;;;;;6.80;1.00;;;;;;5006744;28;20045;-60
2022/12/12 11:39:42;;;;;;;25.30;17.17;;;6.90;1.00;;;;;;5010924;28;19979;-61
2022/12/12 11:42:25;;;;;;;25.10;16.43;;;6.80;1.00;;;;;;5012761;28;20038;-61
2022/12/12 11:45:20;;;;;;;25.30;16.57;;;6.80;1.00;;;;;;5009373;28;20080;-61
2022/12/12 11:47:47;;;;;;;25.77;16.95;;;6.80;1.00;;;;;;5011589;28;20026;-62
2022/12/12 11:50:22;;;;;;;26.00;17.10;;;6.90;1.00;;;;;;5008913;28;20029;-51
2022/12/12 11:52:50;;;;;;;26.20;15.57;;;6.80;1.00;;;;;;5013268;28;20030;-57
2022/12/12 11:55:22;;;;;;;28.17;16.70;;;6.60;1.00;;;;;;5009903;28;20029;-62
2022/12/12 11:58:16;;;;;;;27.30;17.00;;;6.60;1.00;;;;;;5010010;28;20084;-50
2022/12/12 12:00:54;;;;;;;27.20;17.10;;;6.60;1.00;;;;;;5010796;28;20037;-57
2022/12/12 12:03:19;;;;;;;32.50;19.37;;;6.70;1.00;;;;;;5010691;28;20026;-60
2022/12/12 12:06:20;;;;;;;25.57;17.40;;;6.80;1.00;;;;;;5012629;28;20036;-64
2022/12/12 12:09:00;;;;;;;29.47;18.73;;;6.80;1.00;;;;;;5010738;28;20057;-50
2022/12/12 12:11:37;;;;;;;29.30;17.90;;;6.60;1.00;;;;;;5010650;28;20908;-61
2022/12/12 12:14:09;;;;;;;23.90;15.93;;;6.60;1.00;;;;;;5009461;28;20496;-61
2022/12/12 12:17:11;;;;;;;27.20;18.07;;;6.60;1.00;;;;;;5011158;28;20518;-68
2022/12/12 12:19:43;;;;;;;25.10;17.03;;;6.70;1.00;;;;;;5012838;28;20030;-62
2022/12/12 12:22:11;;;;;;;27.37;18.33;;;6.60;1.00;;;;;;5018648;28;20026;-61
2022/12/12 12:24:49;;;;;;;28.20;19.90;;;6.60;1.00;;;;;;5022594;28;20034;-61
2022/12/12 12:27:36;;;;;;;28.97;18.03;;;6.80;1.00;;;;;;5032514;28;20043;-68
2022/12/12 12:30:27;;;;;;;25.23;17.13;;;6.80;1.00;;;;;;5020283;28;20452;-62
2022/12/12 12:33:13;;;;;;;26.83;18.83;;;6.90;1.00;;;;;;5003468;28;20037;-62
2022/12/12 12:36:06;;;;;;;25.60;18.20;;;7.00;1.00;;;;;;5031598;28;20025;-62
2022/12/12 12:38:56;;;;;;;27.50;18.53;;;6.90;1.00;;;;;;5026606;28;20132;-61
2022/12/12 12:41:41;;;;;;;28.10;18.40;;;6.80;1.00;;;;;;5012059;28;20022;-62
2022/12/12 12:44:33;;;;;;;28.00;18.45;;;6.70;1.00;;;;;;5011838;28;20101;-62
2022/12/12 12:47:27;;;;;;;29.97;18.93;;;6.80;1.00;;;;;;5013708;28;20041;-61
2022/12/12 12:50:14;;;;;;;28.37;19.10;;;6.80;1.00;;;;;;5013026;28;20045;-61
2022/12/12 12:52:47;;;;;;;29.93;18.83;;;6.80;1.00;;;;;;5022965;28;20083;-63
2022/12/12 12:55:19;;;;;;;26.30;18.87;;;6.80;1.00;;;;;;5010461;28;20105;-62
2022/12/12 12:57:50;;;;;;;31.27;20.10;;;6.80;1.00;;;;;;4995152;28;20097;-67
2022/12/12 13:00:22;;;;;;;27.40;19.43;;;6.90;1.00;;;;;;5014793;28;20022;-67
2022/12/12 13:03:16;;;;;;;26.77;19.23;;;7.00;1.00;;;;;;5009431;28;20504;-67
2022/12/12 13:05:46;;;;;;;26.40;17.97;;;7.00;1.00;;;;;;5005975;28;20087;-67
2022/12/12 13:08:35;;;;;;;27.83;18.40;;;6.90;1.00;;;;;;5013217;28;20026;-66
2022/12/12 13:11:09;;;;;;;26.07;18.40;;;6.80;1.00;;;;;;5011766;28;20025;-66
2022/12/12 13:13:38;;;;;;;27.77;19.43;;;6.80;1.00;;;;;;5017550;28;20159;-66
2022/12/12 13:16:14;;;;;;;39.57;19.07;;;6.90;1.00;;;;;;5022692;28;20025;-66
2022/12/12 13:18:51;;;;;;;28.97;19.93;;;7.10;1.00;;;;;;5032785;28;20484;-74
2022/12/12 13:21:23;;;;;;;25.80;17.43;;;6.90;1.00;;;;;;5013188;28;20369;-68
2022/12/12 13:23:51;;;;;;;27.40;19.63;;;7.00;1.00;;;;;;5027103;28;20022;-68
2022/12/12 13:26:42;;;;;;;25.43;17.83;;;7.10;1.00;;;;;;5021644;28;20383;-68
2022/12/12 13:29:41;;;;;;;24.40;18.23;;;7.10;1.00;;;;;;5015226;28;20040;-71
2022/12/12 13:32:25;;;;;;;27.63;20.10;;;7.00;1.00;;;;;;5013550;28;20026;-71
2022/12/12 13:34:55;;;;;;;26.42;17.42;;;7.10;1.00;;;;;;5017075;28;20041;-72
2022/12/12 13:37:22;;;;;;;29.93;18.77;;;7.10;1.00;;;;;;5026517;28;20083;-67
2022/12/12 13:40:15;;;;;;;26.93;18.20;;;7.10;1.00;;;;;;5032525;28;20038;-62
2022/12/12 13:43:30;;;;;;;27.67;18.27;;;7.10;1.00;;;;;;5032461;28;20040;-64
2022/12/12 13:45:56;;;;;;;26.67;18.53;;;7.10;1.00;;;;;;5015864;28;20053;-69
2022/12/12 13:48:25;;;;;;;28.67;19.17;;;7.10;1.00;;;;;;5024486;28;20064;-71
2022/12/12 13:51:32;;;;;;;29.87;19.03;;;7.10;1.00;;;;;;5027205;28;20021;-66
2022/12/12 13:54:26;;;;;;;28.33;18.03;;;6.90;1.00;;;;;;5030168;28;20026;-64
2022/12/12 13:56:52;;;;;;;23.00;15.83;;;7.00;1.00;;;;;;5007374;28;20050;-66